Ashland, Wisconsin
Current Conditions -  °F | °C
As of 1:53 PM on Thursday 23 Oct 2014 (Local Time) from KASX Reporting Station
Overcast Overcast  
Wind Chill: 52°   Ceiling: 900
Heat Index: 52°   Visibility: 10mi
Dew Point: 49°   Wind: 8mph
Humidity: 89%   Direction: 220°SW
Pressure: 29.98"   Gusts: NA
Location:  46.59°N, 90.89°W
Report Text: KASX 231853Z AUTO 22007KT 10SM OVC009 11/09 A2998 RMK AO2 SLP156 T01110094
Loading
Personal Weather Stations






























Interactive Weather Map New forecast layout! Learn more

10-Day Weather Forecast

Advertisements
Track Severe Weather on mobile